sensor_id;sensor_type;location;lat;lon;timestamp;temperature;humidity
54540;SHT30;40438;52.992;18.604;2023-06-10T00:01:10;21.45;52.81
54540;SHT30;40438;52.992;18.604;2023-06-10T00:03:36;21.40;52.49
54540;SHT30;40438;52.992;18.604;2023-06-10T00:06:04;21.38;52.37
54540;SHT30;40438;52.992;18.604;2023-06-10T00:08:30;21.32;52.27
54540;SHT30;40438;52.992;18.604;2023-06-10T00:10:55;21.28;52.29
54540;SHT30;40438;52.992;18.604;2023-06-10T00:13:21;21.27;52.31
54540;SHT30;40438;52.992;18.604;2023-06-10T00:15:47;21.26;52.52
54540;SHT30;40438;52.992;18.604;2023-06-10T00:18:13;21.22;52.53
54540;SHT30;40438;52.992;18.604;2023-06-10T00:20:39;21.18;52.92
54540;SHT30;40438;52.992;18.604;2023-06-10T00:23:06;21.13;53.12
54540;SHT30;40438;52.992;18.604;2023-06-10T00:25:32;21.08;53.40
54540;SHT30;40438;52.992;18.604;2023-06-10T00:27:57;21.06;53.53
54540;SHT30;40438;52.992;18.604;2023-06-10T00:30:23;21.06;53.56
54540;SHT30;40438;52.992;18.604;2023-06-10T00:32:49;21.04;53.33
54540;SHT30;40438;52.992;18.604;2023-06-10T00:35:15;21.06;53.26
54540;SHT30;40438;52.992;18.604;2023-06-10T00:37:41;21.00;53.21
54540;SHT30;40438;52.992;18.604;2023-06-10T00:40:10;20.99;53.17
54540;SHT30;40438;52.992;18.604;2023-06-10T00:42:36;20.91;53.44
54540;SHT30;40438;52.992;18.604;2023-06-10T00:45:02;20.90;53.57
54540;SHT30;40438;52.992;18.604;2023-06-10T00:47:28;20.87;53.70
54540;SHT30;40438;52.992;18.604;2023-06-10T00:49:55;20.87;53.52
54540;SHT30;40438;52.992;18.604;2023-06-10T00:52:25;20.84;53.55
54540;SHT30;40438;52.992;18.604;2023-06-10T00:54:52;20.82;53.58
54540;SHT30;40438;52.992;18.604;2023-06-10T00:57:19;20.80;53.52
54540;SHT30;40438;52.992;18.604;2023-06-10T00:59:47;20.77;53.21
54540;SHT30;40438;52.992;18.604;2023-06-10T01:02:13;20.76;52.96
54540;SHT30;40438;52.992;18.604;2023-06-10T01:04:39;20.75;52.85
54540;SHT30;40438;52.992;18.604;2023-06-10T01:07:11;20.79;52.74
54540;SHT30;40438;52.992;18.604;2023-06-10T01:09:44;20.80;52.70
54540;SHT30;40438;52.992;18.604;2023-06-10T01:12:16;20.80;52.75
54540;SHT30;40438;52.992;18.604;2023-06-10T01:14:46;20.77;52.82
54540;SHT30;40438;52.992;18.604;2023-06-10T01:17:13;20.72;53.07
54540;SHT30;40438;52.992;18.604;2023-06-10T01:19:39;20.69;53.24
54540;SHT30;40438;52.992;18.604;2023-06-10T01:22:06;20.64;53.49
54540;SHT30;40438;52.992;18.604;2023-06-10T01:24:32;20.62;53.38
54540;SHT30;40438;52.992;18.604;2023-06-10T01:27:00;20.59;53.43
54540;SHT30;40438;52.992;18.604;2023-06-10T01:29:31;20.53;53.40
54540;SHT30;40438;52.992;18.604;2023-06-10T01:32:03;20.51;53.17
54540;SHT30;40438;52.992;18.604;2023-06-10T01:34:32;20.52;52.95
54540;SHT30;40438;52.992;18.604;2023-06-10T01:36:59;20.52;52.76
54540;SHT30;40438;52.992;18.604;2023-06-10T01:39:26;20.52;52.52
54540;SHT30;40438;52.992;18.604;2023-06-10T01:41:53;20.52;52.31
54540;SHT30;40438;52.992;18.604;2023-06-10T01:44:20;20.49;52.31
54540;SHT30;40438;52.992;18.604;2023-06-10T01:46:46;20.53;51.94
54540;SHT30;40438;52.992;18.604;2023-06-10T01:49:12;20.52;51.99
54540;SHT30;40438;52.992;18.604;2023-06-10T01:51:38;20.48;51.98
54540;SHT30;40438;52.992;18.604;2023-06-10T01:54:04;20.48;51.89
54540;SHT30;40438;52.992;18.604;2023-06-10T01:56:31;20.41;52.10
54540;SHT30;40438;52.992;18.604;2023-06-10T01:58:57;20.39;52.03
54540;SHT30;40438;52.992;18.604;2023-06-10T02:01:22;20.35;52.03
54540;SHT30;40438;52.992;18.604;2023-06-10T02:03:48;20.36;52.09
54540;SHT30;40438;52.992;18.604;2023-06-10T02:06:14;20.38;52.15
54540;SHT30;40438;52.992;18.604;2023-06-10T02:08:40;20.38;52.31
54540;SHT30;40438;52.992;18.604;2023-06-10T02:11:06;20.35;52.40
54540;SHT30;40438;52.992;18.604;2023-06-10T02:13:33;20.32;52.31
54540;SHT30;40438;52.992;18.604;2023-06-10T02:15:59;20.36;52.18
54540;SHT30;40438;52.992;18.604;2023-06-10T02:18:28;20.36;52.11
54540;SHT30;40438;52.992;18.604;2023-06-10T02:20:54;20.35;52.12
54540;SHT30;40438;52.992;18.604;2023-06-10T02:23:21;20.35;52.14
54540;SHT30;40438;52.992;18.604;2023-06-10T02:25:47;20.38;51.99
54540;SHT30;40438;52.992;18.604;2023-06-10T02:28:13;20.35;51.95
54540;SHT30;40438;52.992;18.604;2023-06-10T02:30:41;20.35;51.79
54540;SHT30;40438;52.992;18.604;2023-06-10T02:33:07;20.35;51.69
54540;SHT30;40438;52.992;18.604;2023-06-10T02:35:34;20.33;51.69
54540;SHT30;40438;52.992;18.604;2023-06-10T02:37:59;20.35;51.74
54540;SHT30;40438;52.992;18.604;2023-06-10T02:40:25;20.35;51.73
54540;SHT30;40438;52.992;18.604;2023-06-10T02:42:51;20.32;51.86
54540;SHT30;40438;52.992;18.604;2023-06-10T02:45:17;20.29;52.02
54540;SHT30;40438;52.992;18.604;2023-06-10T02:47:44;20.29;52.13
54540;SHT30;40438;52.992;18.604;2023-06-10T02:50:12;20.24;52.19
54540;SHT30;40438;52.992;18.604;2023-06-10T02:52:48;20.24;52.31
54540;SHT30;40438;52.992;18.604;2023-06-10T02:55:14;20.22;52.37
54540;SHT30;40438;52.992;18.604;2023-06-10T02:57:46;20.22;52.37
54540;SHT30;40438;52.992;18.604;2023-06-10T03:00:12;20.24;52.49
54540;SHT30;40438;52.992;18.604;2023-06-10T03:02:40;20.22;52.25
54540;SHT30;40438;52.992;18.604;2023-06-10T03:05:09;20.22;52.30
54540;SHT30;40438;52.992;18.604;2023-06-10T03:07:38;20.20;52.38
54540;SHT30;40438;52.992;18.604;2023-06-10T03:10:05;20.17;52.33
54540;SHT30;40438;52.992;18.604;2023-06-10T03:12:31;20.20;52.38
54540;SHT30;40438;52.992;18.604;2023-06-10T03:14:57;20.17;52.36
54540;SHT30;40438;52.992;18.604;2023-06-10T03:17:23;20.15;52.43
54540;SHT30;40438;52.992;18.604;2023-06-10T03:19:49;20.14;52.62
54540;SHT30;40438;52.992;18.604;2023-06-10T03:22:16;20.12;52.78
54540;SHT30;40438;52.992;18.604;2023-06-10T03:24:59;20.12;52.78
54540;SHT30;40438;52.992;18.604;2023-06-10T03:27:25;20.14;52.91
54540;SHT30;40438;52.992;18.604;2023-06-10T03:29:54;20.11;52.95
54540;SHT30;40438;52.992;18.604;2023-06-10T03:32:20;20.07;53.32
54540;SHT30;40438;52.992;18.604;2023-06-10T03:34:46;20.05;53.36
54540;SHT30;40438;52.992;18.604;2023-06-10T03:37:12;20.07;53.39
54540;SHT30;40438;52.992;18.604;2023-06-10T03:39:40;20.10;53.35
54540;SHT30;40438;52.992;18.604;2023-06-10T03:42:07;20.12;53.43
54540;SHT30;40438;52.992;18.604;2023-06-10T03:44:33;20.10;53.45
54540;SHT30;40438;52.992;18.604;2023-06-10T03:46:59;20.15;53.43
54540;SHT30;40438;52.992;18.604;2023-06-10T03:49:25;20.15;53.62
54540;SHT30;40438;52.992;18.604;2023-06-10T03:51:52;20.17;53.66
54540;SHT30;40438;52.992;18.604;2023-06-10T03:54:18;20.18;53.91
54540;SHT30;40438;52.992;18.604;2023-06-10T03:56:45;20.18;54.15
54540;SHT30;40438;52.992;18.604;2023-06-10T03:59:11;20.18;54.28
54540;SHT30;40438;52.992;18.604;2023-06-10T04:01:36;20.20;54.23
54540;SHT30;40438;52.992;18.604;2023-06-10T04:04:02;20.18;54.40
54540;SHT30;40438;52.992;18.604;2023-06-10T04:06:28;20.22;54.38
54540;SHT30;40438;52.992;18.604;2023-06-10T04:08:54;20.21;54.30
54540;SHT30;40438;52.992;18.604;2023-06-10T04:11:20;20.18;54.40
54540;SHT30;40438;52.992;18.604;2023-06-10T04:13:48;20.20;54.57
54540;SHT30;40438;52.992;18.604;2023-06-10T04:16:14;20.28;54.37
54540;SHT30;40438;52.992;18.604;2023-06-10T04:18:40;20.35;54.15
54540;SHT30;40438;52.992;18.604;2023-06-10T04:21:07;20.38;53.98
54540;SHT30;40438;52.992;18.604;2023-06-10T04:23:33;20.45;53.85
54540;SHT30;40438;52.992;18.604;2023-06-10T04:25:59;20.51;53.64
54540;SHT30;40438;52.992;18.604;2023-06-10T04:28:25;20.55;53.72
54540;SHT30;40438;52.992;18.604;2023-06-10T04:30:53;20.60;53.70
54540;SHT30;40438;52.992;18.604;2023-06-10T04:33:19;20.62;53.62
54540;SHT30;40438;52.992;18.604;2023-06-10T04:35:45;20.69;53.52
54540;SHT30;40438;52.992;18.604;2023-06-10T04:38:13;20.70;53.63
54540;SHT30;40438;52.992;18.604;2023-06-10T04:40:39;20.82;53.45
54540;SHT30;40438;52.992;18.604;2023-06-10T04:43:04;20.83;53.49
54540;SHT30;40438;52.992;18.604;2023-06-10T04:45:31;20.86;53.19
54540;SHT30;40438;52.992;18.604;2023-06-10T04:47:59;20.90;52.89
54540;SHT30;40438;52.992;18.604;2023-06-10T04:50:26;20.94;52.71
54540;SHT30;40438;52.992;18.604;2023-06-10T04:52:52;21.01;52.76
54540;SHT30;40438;52.992;18.604;2023-06-10T04:55:18;21.07;52.64
54540;SHT30;40438;52.992;18.604;2023-06-10T04:57:44;21.08;52.59
54540;SHT30;40438;52.992;18.604;2023-06-10T05:00:11;21.14;52.57
54540;SHT30;40438;52.992;18.604;2023-06-10T05:02:36;21.14;52.43
54540;SHT30;40438;52.992;18.604;2023-06-10T05:05:04;21.17;52.31
54540;SHT30;40438;52.992;18.604;2023-06-10T05:07:30;21.18;52.23
54540;SHT30;40438;52.992;18.604;2023-06-10T05:09:56;21.18;52.18
54540;SHT30;40438;52.992;18.604;2023-06-10T05:12:21;21.17;52.34
54540;SHT30;40438;52.992;18.604;2023-06-10T05:14:47;21.18;52.40
54540;SHT30;40438;52.992;18.604;2023-06-10T05:17:13;21.15;52.68
54540;SHT30;40438;52.992;18.604;2023-06-10T05:19:39;21.18;52.65
54540;SHT30;40438;52.992;18.604;2023-06-10T05:22:06;21.22;52.64
54540;SHT30;40438;52.992;18.604;2023-06-10T05:24:32;21.28;52.69
54540;SHT30;40438;52.992;18.604;2023-06-10T05:26:58;21.28;52.88
54540;SHT30;40438;52.992;18.604;2023-06-10T05:29:24;21.37;52.84
54540;SHT30;40438;52.992;18.604;2023-06-10T05:31:49;21.44;52.50
54540;SHT30;40438;52.992;18.604;2023-06-10T05:34:15;21.49;52.42
54540;SHT30;40438;52.992;18.604;2023-06-10T05:36:41;21.51;52.38
54540;SHT30;40438;52.992;18.604;2023-06-10T05:39:09;21.57;52.14
54540;SHT30;40438;52.992;18.604;2023-06-10T05:41:35;21.61;51.72
54540;SHT30;40438;52.992;18.604;2023-06-10T05:44:00;21.63;51.67
54540;SHT30;40438;52.992;18.604;2023-06-10T05:46:26;21.68;51.92
54540;SHT30;40438;52.992;18.604;2023-06-10T05:48:52;21.66;51.66
54540;SHT30;40438;52.992;18.604;2023-06-10T05:51:18;21.68;51.17
54540;SHT30;40438;52.992;18.604;2023-06-10T05:53:44;21.69;51.28
54540;SHT30;40438;52.992;18.604;2023-06-10T05:56:11;21.66;51.49
54540;SHT30;40438;52.992;18.604;2023-06-10T05:58:37;21.68;51.29
54540;SHT30;40438;52.992;18.604;2023-06-10T06:01:03;21.72;51.35
54540;SHT30;40438;52.992;18.604;2023-06-10T06:03:29;21.76;51.28
54540;SHT30;40438;52.992;18.604;2023-06-10T06:05:55;21.79;51.17
54540;SHT30;40438;52.992;18.604;2023-06-10T06:08:20;21.83;51.03
54540;SHT30;40438;52.992;18.604;2023-06-10T06:10:46;21.92;50.98
54540;SHT30;40438;52.992;18.604;2023-06-10T06:13:13;21.96;50.94
54540;SHT30;40438;52.992;18.604;2023-06-10T06:15:39;22.02;50.95
54540;SHT30;40438;52.992;18.604;2023-06-10T06:18:05;22.08;50.84
54540;SHT30;40438;52.992;18.604;2023-06-10T06:20:31;22.12;50.94
54540;SHT30;40438;52.992;18.604;2023-06-10T06:22:57;22.17;51.23
54540;SHT30;40438;52.992;18.604;2023-06-10T06:25:22;22.23;51.17
54540;SHT30;40438;52.992;18.604;2023-06-10T06:27:48;22.31;50.80
54540;SHT30;40438;52.992;18.604;2023-06-10T06:30:16;22.38;50.77
54540;SHT30;40438;52.992;18.604;2023-06-10T06:32:42;22.43;50.75
54540;SHT30;40438;52.992;18.604;2023-06-10T06:35:08;22.48;50.53
54540;SHT30;40438;52.992;18.604;2023-06-10T06:37:35;22.57;50.18
54540;SHT30;40438;52.992;18.604;2023-06-10T06:40:14;22.60;50.10
54540;SHT30;40438;52.992;18.604;2023-06-10T06:42:40;22.67;49.94
54540;SHT30;40438;52.992;18.604;2023-06-10T06:45:26;22.75;49.41
54540;SHT30;40438;52.992;18.604;2023-06-10T06:47:51;22.78;48.94
54540;SHT30;40438;52.992;18.604;2023-06-10T06:50:17;22.78;48.81
54540;SHT30;40438;52.992;18.604;2023-06-10T06:52:43;22.82;49.15
54540;SHT30;40438;52.992;18.604;2023-06-10T06:55:09;22.85;48.59
54540;SHT30;40438;52.992;18.604;2023-06-10T06:57:34;22.89;48.57
54540;SHT30;40438;52.992;18.604;2023-06-10T07:00:00;22.91;48.71
54540;SHT30;40438;52.992;18.604;2023-06-10T07:02:27;22.98;48.81
54540;SHT30;40438;52.992;18.604;2023-06-10T07:04:53;22.99;48.62
54540;SHT30;40438;52.992;18.604;2023-06-10T07:07:19;23.06;48.48
54540;SHT30;40438;52.992;18.604;2023-06-10T07:09:45;23.06;48.46
54540;SHT30;40438;52.992;18.604;2023-06-10T07:12:11;23.11;48.14
54540;SHT30;40438;52.992;18.604;2023-06-10T07:14:36;23.16;48.05
54540;SHT30;40438;52.992;18.604;2023-06-10T07:17:02;23.25;48.10
54540;SHT30;40438;52.992;18.604;2023-06-10T07:19:30;23.23;47.94
54540;SHT30;40438;52.992;18.604;2023-06-10T07:21:55;23.33;47.94
54540;SHT30;40438;52.992;18.604;2023-06-10T07:24:21;23.37;47.70
54540;SHT30;40438;52.992;18.604;2023-06-10T07:26:47;23.40;47.50
54540;SHT30;40438;52.992;18.604;2023-06-10T07:29:13;23.49;47.40
54540;SHT30;40438;52.992;18.604;2023-06-10T07:31:40;23.54;47.49
54540;SHT30;40438;52.992;18.604;2023-06-10T07:34:06;23.60;47.48
54540;SHT30;40438;52.992;18.604;2023-06-10T07:36:33;23.67;47.03
54540;SHT30;40438;52.992;18.604;2023-06-10T07:38:59;23.71;46.80
54540;SHT30;40438;52.992;18.604;2023-06-10T07:41:25;23.76;46.61
54540;SHT30;40438;52.992;18.604;2023-06-10T07:43:52;23.78;46.37
54540;SHT30;40438;52.992;18.604;2023-06-10T07:46:18;23.81;46.45
54540;SHT30;40438;52.992;18.604;2023-06-10T07:48:44;23.90;46.47
54540;SHT30;40438;52.992;18.604;2023-06-10T07:51:09;23.91;46.36
54540;SHT30;40438;52.992;18.604;2023-06-10T07:53:37;23.98;46.48
54540;SHT30;40438;52.992;18.604;2023-06-10T07:56:03;24.02;46.37
54540;SHT30;40438;52.992;18.604;2023-06-10T07:58:28;24.11;46.42
54540;SHT30;40438;52.992;18.604;2023-06-10T08:00:54;24.18;46.00
54540;SHT30;40438;52.992;18.604;2023-06-10T08:03:20;24.22;45.58
54540;SHT30;40438;52.992;18.604;2023-06-10T08:05:46;24.34;45.13
54540;SHT30;40438;52.992;18.604;2023-06-10T08:08:13;24.35;44.87
54540;SHT30;40438;52.992;18.604;2023-06-10T08:10:40;24.38;43.92
54540;SHT30;40438;52.992;18.604;2023-06-10T08:13:05;24.42;44.02
54540;SHT30;40438;52.992;18.604;2023-06-10T08:15:31;24.48;44.12
54540;SHT30;40438;52.992;18.604;2023-06-10T08:17:57;24.56;44.36
54540;SHT30;40438;52.992;18.604;2023-06-10T08:20:24;24.67;44.16
54540;SHT30;40438;52.992;18.604;2023-06-10T08:22:50;24.74;43.65
54540;SHT30;40438;52.992;18.604;2023-06-10T08:25:16;24.73;42.51
54540;SHT30;40438;52.992;18.604;2023-06-10T08:27:43;24.74;42.57
54540;SHT30;40438;52.992;18.604;2023-06-10T08:30:09;24.80;42.75
54540;SHT30;40438;52.992;18.604;2023-06-10T08:32:35;24.83;42.60
54540;SHT30;40438;52.992;18.604;2023-06-10T08:35:01;24.88;42.47
54540;SHT30;40438;52.992;18.604;2023-06-10T08:37:27;24.97;42.44
54540;SHT30;40438;52.992;18.604;2023-06-10T08:39:53;25.01;41.89
54540;SHT30;40438;52.992;18.604;2023-06-10T08:42:22;25.08;41.88
54540;SHT30;40438;52.992;18.604;2023-06-10T08:44:53;25.11;41.74
54540;SHT30;40438;52.992;18.604;2023-06-10T08:47:19;25.17;41.64
54540;SHT30;40438;52.992;18.604;2023-06-10T08:49:47;25.24;41.45
54540;SHT30;40438;52.992;18.604;2023-06-10T08:52:16;25.31;40.73
54540;SHT30;40438;52.992;18.604;2023-06-10T08:54:43;25.35;40.55
54540;SHT30;40438;52.992;18.604;2023-06-10T08:57:12;25.35;40.93
54540;SHT30;40438;52.992;18.604;2023-06-10T08:59:39;25.38;40.83
54540;SHT30;40438;52.992;18.604;2023-06-10T09:02:07;25.41;40.39
54540;SHT30;40438;52.992;18.604;2023-06-10T09:04:34;25.51;40.73
54540;SHT30;40438;52.992;18.604;2023-06-10T09:07:02;25.58;40.79
54540;SHT30;40438;52.992;18.604;2023-06-10T09:09:28;25.57;39.97
54540;SHT30;40438;52.992;18.604;2023-06-10T09:11:54;25.59;39.50
54540;SHT30;40438;52.992;18.604;2023-06-10T09:14:20;25.62;39.88
54540;SHT30;40438;52.992;18.604;2023-06-10T09:16:46;25.65;39.92
54540;SHT30;40438;52.992;18.604;2023-06-10T09:19:14;25.69;39.42
54540;SHT30;40438;52.992;18.604;2023-06-10T09:21:41;25.76;38.87
54540;SHT30;40438;52.992;18.604;2023-06-10T09:24:07;25.82;38.54
54540;SHT30;40438;52.992;18.604;2023-06-10T09:26:33;25.86;38.88
54540;SHT30;40438;52.992;18.604;2023-06-10T09:29:05;25.90;38.89
54540;SHT30;40438;52.992;18.604;2023-06-10T09:31:32;25.93;39.03
54540;SHT30;40438;52.992;18.604;2023-06-10T09:34:07;25.99;38.85
54540;SHT30;40438;52.992;18.604;2023-06-10T09:36:35;26.00;38.19
54540;SHT30;40438;52.992;18.604;2023-06-10T09:39:01;26.06;37.98
54540;SHT30;40438;52.992;18.604;2023-06-10T09:41:32;26.09;37.74
54540;SHT30;40438;52.992;18.604;2023-06-10T09:43:59;26.13;37.89
54540;SHT30;40438;52.992;18.604;2023-06-10T09:46:30;26.19;37.93
54540;SHT30;40438;52.992;18.604;2023-06-10T09:48:57;26.24;38.01
54540;SHT30;40438;52.992;18.604;2023-06-10T09:51:24;26.30;37.76
54540;SHT30;40438;52.992;18.604;2023-06-10T09:53:52;26.34;37.34
54540;SHT30;40438;52.992;18.604;2023-06-10T09:56:18;26.40;37.11
54540;SHT30;40438;52.992;18.604;2023-06-10T09:58:44;26.45;36.95
54540;SHT30;40438;52.992;18.604;2023-06-10T10:01:13;26.51;36.52
54540;SHT30;40438;52.992;18.604;2023-06-10T10:03:45;26.60;36.35
54540;SHT30;40438;52.992;18.604;2023-06-10T10:06:12;26.71;36.22
54540;SHT30;40438;52.992;18.604;2023-06-10T10:08:37;26.81;36.71
54540;SHT30;40438;52.992;18.604;2023-06-10T10:11:05;26.98;35.66
54540;SHT30;40438;52.992;18.604;2023-06-10T10:13:33;27.30;35.06
54540;SHT30;40438;52.992;18.604;2023-06-10T10:16:01;27.64;34.09
54540;SHT30;40438;52.992;18.604;2023-06-10T10:18:29;28.11;33.04
54540;SHT30;40438;52.992;18.604;2023-06-10T10:20:57;28.66;32.65
54540;SHT30;40438;52.992;18.604;2023-06-10T10:23:31;28.98;31.27
54540;SHT30;40438;52.992;18.604;2023-06-10T10:26:00;29.34;31.28
54540;SHT30;40438;52.992;18.604;2023-06-10T10:28:37;29.61;30.78
54540;SHT30;40438;52.992;18.604;2023-06-10T10:31:08;29.79;29.95
54540;SHT30;40438;52.992;18.604;2023-06-10T10:33:41;29.86;29.75
54540;SHT30;40438;52.992;18.604;2023-06-10T10:36:08;29.86;29.37
54540;SHT30;40438;52.992;18.604;2023-06-10T10:38:36;29.93;29.50
54540;SHT30;40438;52.992;18.604;2023-06-10T10:41:02;29.82;29.66
54540;SHT30;40438;52.992;18.604;2023-06-10T10:43:30;29.88;29.52
54540;SHT30;40438;52.992;18.604;2023-06-10T10:45:58;30.03;29.64
54540;SHT30;40438;52.992;18.604;2023-06-10T10:48:24;30.16;28.88
54540;SHT30;40438;52.992;18.604;2023-06-10T10:50:56;30.14;28.25
54540;SHT30;40438;52.992;18.604;2023-06-10T10:53:22;30.16;28.45
54540;SHT30;40438;52.992;18.604;2023-06-10T10:55:58;30.18;28.16
54540;SHT30;40438;52.992;18.604;2023-06-10T10:58:24;30.16;27.50
54540;SHT30;40438;52.992;18.604;2023-06-10T11:00:51;30.12;27.74
54540;SHT30;40438;52.992;18.604;2023-06-10T11:03:17;30.07;27.86
54540;SHT30;40438;52.992;18.604;2023-06-10T11:05:44;30.12;26.94
54540;SHT30;40438;52.992;18.604;2023-06-10T11:08:10;30.18;27.21
54540;SHT30;40438;52.992;18.604;2023-06-10T11:10:38;30.25;26.73
54540;SHT30;40438;52.992;18.604;2023-06-10T11:13:08;30.14;27.20
54540;SHT30;40438;52.992;18.604;2023-06-10T11:15:38;30.06;26.84
54540;SHT30;40438;52.992;18.604;2023-06-10T11:18:11;29.99;26.49
54540;SHT30;40438;52.992;18.604;2023-06-10T11:20:55;29.96;26.59
54540;SHT30;40438;52.992;18.604;2023-06-10T11:23:41;29.88;26.28
54540;SHT30;40438;52.992;18.604;2023-06-10T13:40:57;31.22;23.60
54540;SHT30;40438;52.992;18.604;2023-06-10T13:43:22;31.08;23.80
54540;SHT30;40438;52.992;18.604;2023-06-10T13:45:48;31.18;24.25
54540;SHT30;40438;52.992;18.604;2023-06-10T13:48:14;31.30;23.75
54540;SHT30;40438;52.992;18.604;2023-06-10T13:50:40;31.23;23.57
54540;SHT30;40438;52.992;18.604;2023-06-10T13:53:06;31.39;24.39
54540;SHT30;40438;52.992;18.604;2023-06-10T13:55:31;31.51;24.16
54540;SHT30;40438;52.992;18.604;2023-06-10T13:57:59;31.53;23.75
54540;SHT30;40438;52.992;18.604;2023-06-10T14:00:24;31.66;23.50
54540;SHT30;40438;52.992;18.604;2023-06-10T14:02:50;31.68;23.38
54540;SHT30;40438;52.992;18.604;2023-06-10T14:05:16;31.84;23.79
54540;SHT30;40438;52.992;18.604;2023-06-10T14:07:42;31.85;23.35
54540;SHT30;40438;52.992;18.604;2023-06-10T14:10:08;31.89;23.19
54540;SHT30;40438;52.992;18.604;2023-06-10T14:12:34;31.98;23.34
54540;SHT30;40438;52.992;18.604;2023-06-10T14:15:01;32.01;23.10
54540;SHT30;40438;52.992;18.604;2023-06-10T14:17:27;32.08;23.13
54540;SHT30;40438;52.992;18.604;2023-06-10T14:19:53;32.18;22.38
54540;SHT30;40438;52.992;18.604;2023-06-10T14:22:18;32.12;22.39
54540;SHT30;40438;52.992;18.604;2023-06-10T14:24:44;32.32;22.36
54540;SHT30;40438;52.992;18.604;2023-06-10T14:27:10;32.31;22.45
54540;SHT30;40438;52.992;18.604;2023-06-10T14:29:36;32.46;22.64
54540;SHT30;40438;52.992;18.604;2023-06-10T14:32:03;32.48;22.68
54540;SHT30;40438;52.992;18.604;2023-06-10T14:34:29;32.46;21.98
54540;SHT30;40438;52.992;18.604;2023-06-10T14:36:55;32.46;22.13
54540;SHT30;40438;52.992;18.604;2023-06-10T14:39:21;32.55;21.90
54540;SHT30;40438;52.992;18.604;2023-06-10T14:41:47;32.24;21.94
54540;SHT30;40438;52.992;18.604;2023-06-10T14:44:12;32.08;22.08
54540;SHT30;40438;52.992;18.604;2023-06-10T14:46:38;32.16;22.27
54540;SHT30;40438;52.992;18.604;2023-06-10T14:49:05;32.19;22.07
54540;SHT30;40438;52.992;18.604;2023-06-10T14:51:31;32.15;22.18
54540;SHT30;40438;52.992;18.604;2023-06-10T14:53:57;32.25;22.10
54540;SHT30;40438;52.992;18.604;2023-06-10T14:56:23;32.38;22.13
54540;SHT30;40438;52.992;18.604;2023-06-10T14:58:48;32.28;22.35
54540;SHT30;40438;52.992;18.604;2023-06-10T15:01:14;32.36;22.30
54540;SHT30;40438;52.992;18.604;2023-06-10T15:03:40;32.55;21.99
54540;SHT30;40438;52.992;18.604;2023-06-10T15:06:07;32.29;21.69
54540;SHT30;40438;52.992;18.604;2023-06-10T15:08:33;32.51;21.44
54540;SHT30;40438;52.992;18.604;2023-06-10T15:10:59;32.31;21.45
54540;SHT30;40438;52.992;18.604;2023-06-10T15:13:24;32.22;21.48
54540;SHT30;40438;52.992;18.604;2023-06-10T15:15:50;32.33;21.43
54540;SHT30;40438;52.992;18.604;2023-06-10T15:18:16;32.12;22.08
54540;SHT30;40438;52.992;18.604;2023-06-10T15:20:42;31.98;22.34
54540;SHT30;40438;52.992;18.604;2023-06-10T15:23:09;31.92;22.76
54540;SHT30;40438;52.992;18.604;2023-06-10T15:25:35;31.57;22.90
54540;SHT30;40438;52.992;18.604;2023-06-10T15:28:00;31.29;23.39
54540;SHT30;40438;52.992;18.604;2023-06-10T15:30:26;30.98;23.86
54540;SHT30;40438;52.992;18.604;2023-06-10T15:32:52;30.82;23.92
54540;SHT30;40438;52.992;18.604;2023-06-10T15:35:18;30.52;24.51
54540;SHT30;40438;52.992;18.604;2023-06-10T15:37:44;30.33;24.61
54540;SHT30;40438;52.992;18.604;2023-06-10T15:40:11;30.09;24.82
54540;SHT30;40438;52.992;18.604;2023-06-10T15:42:37;29.85;24.94
54540;SHT30;40438;52.992;18.604;2023-06-10T15:45:03;29.77;25.13
54540;SHT30;40438;52.992;18.604;2023-06-10T15:47:29;29.81;24.94
54540;SHT30;40438;52.992;18.604;2023-06-10T15:49:55;29.93;24.89
54540;SHT30;40438;52.992;18.604;2023-06-10T15:52:21;30.00;24.97
54540;SHT30;40438;52.992;18.604;2023-06-10T15:54:46;29.99;25.09
54540;SHT30;40438;52.992;18.604;2023-06-10T15:57:14;29.61;25.23
54540;SHT30;40438;52.992;18.604;2023-06-10T15:59:39;29.41;25.59
54540;SHT30;40438;52.992;18.604;2023-06-10T16:02:05;29.15;25.85
54540;SHT30;40438;52.992;18.604;2023-06-10T16:04:31;29.03;26.13
54540;SHT30;40438;52.992;18.604;2023-06-10T16:06:57;28.95;26.22
54540;SHT30;40438;52.992;18.604;2023-06-10T16:09:23;28.80;26.29
54540;SHT30;40438;52.992;18.604;2023-06-10T16:11:48;28.66;26.24
54540;SHT30;40438;52.992;18.604;2023-06-10T16:14:16;28.53;26.42
54540;SHT30;40438;52.992;18.604;2023-06-10T16:16:41;28.45;26.49
54540;SHT30;40438;52.992;18.604;2023-06-10T16:19:07;28.37;26.78
54540;SHT30;40438;52.992;18.604;2023-06-10T16:21:33;28.25;26.85
54540;SHT30;40438;52.992;18.604;2023-06-10T16:23:59;28.18;27.12
54540;SHT30;40438;52.992;18.604;2023-06-10T16:26:24;27.97;27.29
54540;SHT30;40438;52.992;18.604;2023-06-10T16:28:50;27.82;27.59
54540;SHT30;40438;52.992;18.604;2023-06-10T16:31:17;27.77;27.65
54540;SHT30;40438;52.992;18.604;2023-06-10T16:33:43;27.74;27.68
54540;SHT30;40438;52.992;18.604;2023-06-10T16:36:09;27.67;27.82
54540;SHT30;40438;52.992;18.604;2023-06-10T16:38:35;27.66;28.19
54540;SHT30;40438;52.992;18.604;2023-06-10T16:41:00;27.58;28.02
54540;SHT30;40438;52.992;18.604;2023-06-10T16:43:26;27.49;27.90
54540;SHT30;40438;52.992;18.604;2023-06-10T16:45:52;27.40;27.96
54540;SHT30;40438;52.992;18.604;2023-06-10T16:48:19;27.29;28.20
54540;SHT30;40438;52.992;18.604;2023-06-10T16:50:45;27.18;27.79
54540;SHT30;40438;52.992;18.604;2023-06-10T16:53:11;27.06;27.79
54540;SHT30;40438;52.992;18.604;2023-06-10T16:55:36;26.91;27.90
54540;SHT30;40438;52.992;18.604;2023-06-10T16:58:02;26.78;28.17
54540;SHT30;40438;52.992;18.604;2023-06-10T17:00:28;26.65;28.47
54540;SHT30;40438;52.992;18.604;2023-06-10T17:02:54;26.60;28.54
54540;SHT30;40438;52.992;18.604;2023-06-10T17:05:21;26.51;28.58
54540;SHT30;40438;52.992;18.604;2023-06-10T17:07:47;26.44;28.65
54540;SHT30;40438;52.992;18.604;2023-06-10T17:10:13;26.40;28.86
54540;SHT30;40438;52.992;18.604;2023-06-10T17:12:38;26.41;29.44
54540;SHT30;40438;52.992;18.604;2023-06-10T17:15:05;26.39;29.35
54540;SHT30;40438;52.992;18.604;2023-06-10T17:17:31;26.36;29.43
54540;SHT30;40438;52.992;18.604;2023-06-10T17:19:57;26.36;30.24
54540;SHT30;40438;52.992;18.604;2023-06-10T17:22:24;26.27;30.31
54540;SHT30;40438;52.992;18.604;2023-06-10T17:24:50;26.11;29.47
54540;SHT30;40438;52.992;18.604;2023-06-10T17:27:16;26.00;29.71